Aviation Digital Data Service (ADDS)

Output produced by METARs form (0455 UTC 30 September 2016)
found at http://aviationweather.gov/adds/metars/
 
KCAK 292340Z 3000/3024 05010KT 4SM -RA BR SCT015 BKN070 
     TEMPO 3000/3003 08012KT 2SM -TSRA BR BKN015CB 
     FM300400 07012KT 4SM BR VCSH OVC008 
     FM300800 09014KT 3SM BR OVC004 
     FM302000 11010KT P6SM -SHRA BKN028